createdAt,value
2023-03-28T00:02:28.742Z,101709.97
2023-03-28T00:05:15.688Z,101718.69
2023-03-28T00:08:02.703Z,101715.22
2023-03-28T00:10:49.622Z,101723.84
2023-03-28T00:13:36.594Z,101720.38
2023-03-28T00:16:29.848Z,101715.16
2023-03-28T00:19:16.748Z,101719.41
2023-03-28T00:22:06.370Z,101722.94
2023-03-28T00:24:53.382Z,101722.91
2023-03-28T00:27:40.418Z,101728.09
2023-03-28T00:30:27.926Z,101722.03
2023-03-28T00:33:14.772Z,101666.66
2023-03-28T00:36:02.006Z,101692.88
2023-03-28T00:38:49.189Z,101669.22
2023-03-28T00:41:37.018Z,101730.66
2023-03-28T00:45:02.321Z,101732.34
2023-03-28T00:48:01.218Z,101734.94
2023-03-28T00:51:00.000Z,101719.19
2023-03-28T00:53:47.041Z,101731.38
2023-03-28T00:56:36.682Z,101719.91
2023-03-28T00:59:28.017Z,101687.47
2023-03-28T01:02:15.588Z,101728.75
2023-03-28T01:05:31.711Z,101724.22
2023-03-28T01:08:26.767Z,101751.22
2023-03-28T01:11:14.905Z,101695.13
2023-03-28T01:14:07.947Z,101708.31
2023-03-28T01:16:55.190Z,101718.78
2023-03-28T01:20:04.423Z,101744.19
2023-03-28T01:22:58.197Z,101752.84
2023-03-28T01:26:38.916Z,101752.75
2023-03-28T01:29:29.798Z,101752.75
2023-03-28T01:32:53.383Z,101760.50
2023-03-28T01:35:42.261Z,101761.38
2023-03-28T01:38:44.426Z,101763.94
2023-03-28T01:42:13.880Z,101661.28
2023-03-28T01:45:18.960Z,101770.75
2023-03-28T01:48:18.929Z,101772.47
2023-03-28T01:51:12.141Z,101707.53
2023-03-28T01:54:07.137Z,101725.94
2023-03-28T01:57:11.647Z,101769.72
2023-03-28T02:00:46.679Z,101775.75
2023-03-28T02:03:47.121Z,101774.00
2023-03-28T02:06:56.666Z,101771.16
2023-03-28T02:09:49.379Z,101778.16
2023-03-28T02:13:00.718Z,101759.59
2023-03-28T02:16:07.037Z,101712.19
2023-03-28T02:19:03.320Z,101763.00
2023-03-28T02:22:11.706Z,101791.09
2023-03-28T02:25:14.681Z,101791.94
2023-03-28T02:28:25.444Z,101757.75
2023-03-28T02:31:29.663Z,101783.22
2023-03-28T02:34:16.718Z,101797.13
2023-03-28T02:37:03.646Z,101805.75
2023-03-28T02:40:13.825Z,101768.03
2023-03-28T02:43:26.402Z,101795.34
2023-03-28T02:46:25.596Z,101805.69
2023-03-28T02:49:49.508Z,101796.97
2023-03-28T02:52:44.719Z,101798.69
2023-03-28T02:55:48.392Z,101801.25
2023-03-28T02:59:28.937Z,101802.13
2023-03-28T03:02:16.088Z,101809.84
2023-03-28T03:05:03.193Z,101807.09
2023-03-28T03:07:51.475Z,101815.88
2023-03-28T03:10:39.110Z,101814.97
2023-03-28T03:13:26.167Z,101809.75
2023-03-28T03:16:13.510Z,101816.66
2023-03-28T03:19:00.397Z,101815.78
2023-03-28T03:21:47.582Z,101818.34
2023-03-28T03:24:34.495Z,101815.69
2023-03-28T03:27:22.362Z,101820.00
2023-03-28T03:30:09.223Z,101805.16
2023-03-28T03:33:17.038Z,101809.50
2023-03-28T03:36:07.935Z,101788.25
2023-03-28T03:38:55.037Z,101831.91
2023-03-28T03:41:43.184Z,101804.03
2023-03-28T03:44:30.313Z,101804.03
2023-03-28T03:47:17.291Z,101828.41
2023-03-28T03:50:04.579Z,101817.78
2023-03-28T03:52:53.246Z,101805.47
2023-03-28T03:55:45.459Z,101766.84
2023-03-28T03:58:32.470Z,101815.75
2023-03-28T04:01:24.956Z,101826.44
2023-03-28T04:04:13.457Z,101833.38
2023-03-28T04:07:19.366Z,101776.16
2023-03-28T04:10:08.607Z,101821.75
2023-03-28T04:12:58.654Z,101766.44
2023-03-28T04:15:45.834Z,101840.94
2023-03-28T04:18:59.821Z,101845.22
2023-03-28T04:21:50.715Z,101842.56
2023-03-28T04:24:39.431Z,101848.59
2023-03-28T04:27:36.624Z,101853.75
2023-03-28T04:30:24.408Z,101851.97
2023-03-28T04:33:29.921Z,101856.28
2023-03-28T04:36:21.874Z,101783.38
2023-03-28T04:39:17.146Z,101860.56
2023-03-28T04:42:21.771Z,101852.59
2023-03-28T04:45:37.625Z,101865.69
2023-03-28T04:48:36.847Z,101796.25
2023-03-28T04:51:24.421Z,101848.00
2023-03-28T04:54:11.557Z,101860.44
2023-03-28T04:57:08.172Z,101779.72
2023-03-28T05:00:18.143Z,101856.91
2023-03-28T05:03:26.939Z,101874.19
2023-03-28T05:06:21.853Z,101856.81
2023-03-28T05:09:09.682Z,101858.59
2023-03-28T05:11:56.649Z,101853.31
2023-03-28T05:14:44.010Z,101857.53
2023-03-28T05:17:36.420Z,101868.13
2023-03-28T05:20:30.339Z,101804.03
2023-03-28T05:23:18.049Z,101868.16
2023-03-28T05:26:13.103Z,101863.81
2023-03-28T05:29:01.060Z,101855.03
2023-03-28T05:31:48.013Z,101869.94
2023-03-28T05:34:41.254Z,101795.19
2023-03-28T05:37:29.065Z,101873.28
2023-03-28T05:40:16.145Z,101885.59
2023-03-28T05:43:03.952Z,101887.41
2023-03-28T05:45:51.847Z,101852.22
2023-03-28T05:48:41.889Z,101891.75
2023-03-28T05:51:29.096Z,101871.56
2023-03-28T05:54:18.026Z,101893.53
2023-03-28T05:57:05.155Z,101895.19
2023-03-28T05:59:52.153Z,101895.09
2023-03-28T06:02:42.564Z,101903.13
2023-03-28T06:05:30.933Z,101895.44
2023-03-28T06:08:18.203Z,101853.13
2023-03-28T06:11:05.244Z,101906.72
2023-03-28T06:14:07.214Z,101910.19
2023-03-28T06:16:55.627Z,101890.03
2023-03-28T06:19:43.067Z,101912.94
2023-03-28T06:22:30.291Z,101910.38
2023-03-28T06:25:26.627Z,101909.53
2023-03-28T06:28:13.651Z,101877.13
2023-03-28T06:31:20.638Z,101917.47
2023-03-28T06:34:08.745Z,101915.72
2023-03-28T06:37:05.785Z,101914.16
2023-03-28T06:40:11.610Z,101905.34
2023-03-28T06:42:59.030Z,101931.63
2023-03-28T06:46:06.394Z,101922.19
2023-03-28T06:48:53.994Z,101884.44
2023-03-28T06:51:43.926Z,101927.50
2023-03-28T06:54:31.718Z,101926.75
2023-03-28T06:57:19.079Z,101888.13
2023-03-28T07:00:08.196Z,101931.22
2023-03-28T07:03:13.777Z,101933.06
2023-03-28T07:06:02.301Z,101935.75
2023-03-28T07:08:52.791Z,101931.47
2023-03-28T07:11:45.174Z,101935.91
2023-03-28T07:14:32.358Z,101936.88
2023-03-28T07:17:20.845Z,101939.56
2023-03-28T07:20:08.095Z,101953.50
2023-03-28T07:22:55.729Z,101952.69
2023-03-28T07:25:43.137Z,101945.88
2023-03-28T07:28:30.158Z,101927.38
2023-03-28T07:31:17.276Z,101953.81
2023-03-28T07:34:04.346Z,101959.13
2023-03-28T07:36:51.281Z,101951.44
2023-03-28T07:39:54.129Z,101940.03
2023-03-28T07:42:43.694Z,101891.97
2023-03-28T07:45:31.454Z,101943.88
2023-03-28T07:48:18.826Z,101878.06
2023-03-28T07:51:05.758Z,101949.22
2023-03-28T07:53:53.459Z,101948.44
2023-03-28T07:56:41.091Z,101935.34
2023-03-28T08:00:00.230Z,101945.22
2023-03-28T08:02:47.859Z,101940.91
2023-03-28T08:05:35.256Z,101926.91
2023-03-28T08:08:22.234Z,101933.22
2023-03-28T08:11:23.652Z,101948.28
2023-03-28T08:14:10.659Z,101922.03
2023-03-28T08:16:58.181Z,101946.78
2023-03-28T08:19:45.111Z,101950.34
2023-03-28T08:22:32.129Z,101914.56
2023-03-28T08:25:51.037Z,101913.97
2023-03-28T08:28:42.086Z,101937.75
2023-03-28T08:31:32.005Z,101948.28
2023-03-28T08:34:26.387Z,101934.44
2023-03-28T08:37:16.645Z,101938.09
2023-03-28T08:40:06.445Z,101935.59
2023-03-28T08:43:10.902Z,101928.78
2023-03-28T08:46:17.482Z,101941.06
2023-03-28T08:49:07.323Z,101912.25
2023-03-28T08:51:56.745Z,101947.38
2023-03-28T08:54:50.740Z,101930.97
2023-03-28T08:57:45.463Z,101936.28
2023-03-28T09:00:45.939Z,101931.19
2023-03-28T09:03:35.911Z,101930.44
2023-03-28T09:06:50.629Z,101933.09
2023-03-28T09:09:46.729Z,101933.28
2023-03-28T09:12:57.371Z,101929.03
2023-03-28T09:16:26.283Z,101922.19
2023-03-28T09:19:40.568Z,101930.13
2023-03-28T09:23:17.413Z,101925.03
2023-03-28T09:26:35.211Z,101917.34
2023-03-28T09:29:33.785Z,101914.84
2023-03-28T09:32:31.459Z,101914.13
2023-03-28T09:35:19.100Z,101877.31
2023-03-28T09:38:12.224Z,101910.84
2023-03-28T09:41:01.115Z,101904.06
2023-03-28T09:44:07.419Z,101910.28
2023-03-28T09:46:59.684Z,101909.50
2023-03-28T09:50:12.335Z,101906.16
2023-03-28T09:53:02.050Z,101903.66
2023-03-28T09:56:03.371Z,101899.31
2023-03-28T09:59:26.222Z,101896.91
2023-03-28T10:02:17.412Z,101900.44
2023-03-28T10:05:06.142Z,101904.88
2023-03-28T10:08:11.799Z,101902.34
2023-03-28T10:11:13.758Z,101891.00
2023-03-28T10:14:12.237Z,101891.13
2023-03-28T10:16:59.164Z,101901.66
2023-03-28T10:19:57.273Z,101857.97
2023-03-28T10:22:47.696Z,101896.59
2023-03-28T10:25:41.530Z,101847.59
2023-03-28T10:28:36.431Z,101894.09
2023-03-28T10:31:25.022Z,101883.66
2023-03-28T10:34:12.664Z,101894.25
2023-03-28T10:37:14.380Z,101882.16
2023-03-28T10:40:23.050Z,101884.81
2023-03-28T10:43:13.005Z,101862.09
2023-03-28T10:46:03.259Z,101884.91
2023-03-28T10:49:38.125Z,101884.97
2023-03-28T10:52:48.157Z,101876.34
2023-03-28T10:55:45.361Z,101883.34
2023-03-28T10:59:07.458Z,101840.50
2023-03-28T11:02:07.350Z,101878.25
2023-03-28T11:05:16.052Z,101883.50
2023-03-28T11:08:40.172Z,101880.97
2023-03-28T11:12:38.097Z,101872.34
2023-03-28T11:15:47.579Z,101839.94
2023-03-28T11:18:59.286Z,101877.69
2023-03-28T11:22:20.141Z,101876.88
2023-03-28T11:25:37.918Z,101872.56
2023-03-28T11:28:45.349Z,101884.78
2023-03-28T11:31:44.405Z,101862.06
2023-03-28T11:34:37.546Z,101876.13
2023-03-28T11:37:59.776Z,101876.16
2023-03-28T11:41:14.153Z,101878.78
2023-03-28T11:44:21.185Z,101883.16
2023-03-28T11:47:30.480Z,101885.78
2023-03-28T11:50:53.169Z,101886.66
2023-03-28T11:54:14.761Z,101885.78
2023-03-28T11:57:16.540Z,101872.69
2023-03-28T12:00:34.268Z,101874.47
2023-03-28T12:03:43.517Z,101877.13
2023-03-28T12:06:43.985Z,101871.03
2023-03-28T12:09:53.929Z,101863.22
2023-03-28T12:12:51.027Z,101831.72
2023-03-28T12:15:41.850Z,101844.88
2023-03-28T12:18:42.631Z,101863.28
2023-03-28T12:21:41.924Z,101839.69
2023-03-28T12:24:58.607Z,101857.22
2023-03-28T12:27:53.453Z,101861.59
2023-03-28T12:30:47.373Z,101855.50
2023-03-28T12:33:57.949Z,101841.56
2023-03-28T12:37:07.817Z,101849.47
2023-03-28T12:40:07.841Z,101859.06
2023-03-28T12:42:56.801Z,101854.75
2023-03-28T12:45:51.188Z,101856.50
2023-03-28T12:48:50.770Z,101838.22
2023-03-28T12:51:45.646Z,101847.84
2023-03-28T12:54:36.206Z,101761.25
2023-03-28T13:00:32.271Z,101842.63
2023-03-28T13:04:09.122Z,101822.53
2023-03-28T17:00:11.704Z,101839.97
2023-03-28T17:02:59.340Z,101842.56
2023-03-28T17:05:46.320Z,101850.38
2023-03-28T17:08:33.247Z,101798.78
2023-03-28T17:11:20.283Z,101819.78
2023-03-28T17:14:10.154Z,101846.03
2023-03-28T17:16:57.360Z,101842.50
2023-03-28T17:19:44.214Z,101839.88
2023-03-28T17:22:31.070Z,101839.88
2023-03-28T17:25:17.921Z,101843.38
2023-03-28T17:28:05.086Z,101831.13
2023-03-28T17:30:52.140Z,101820.59
2023-03-28T17:33:39.849Z,101837.22
2023-03-28T17:36:39.157Z,101825.78
2023-03-28T17:39:26.027Z,101840.63
2023-03-28T17:42:12.954Z,101785.44
2023-03-28T17:44:59.985Z,101839.72
2023-03-28T17:47:46.980Z,101760.03
2023-03-28T17:50:34.102Z,101830.06
2023-03-28T17:53:21.096Z,101826.63
2023-03-28T17:56:08.206Z,101821.34
2023-03-28T17:58:55.752Z,101816.00
2023-03-28T18:01:42.865Z,101813.44
2023-03-28T18:04:29.834Z,101830.00
2023-03-28T18:07:42.041Z,101778.38
2023-03-28T18:10:30.197Z,101781.03
2023-03-28T18:13:17.513Z,101810.72
2023-03-28T18:16:04.938Z,101813.44
2023-03-28T18:18:53.061Z,101765.25
2023-03-28T18:21:40.813Z,101809.91
2023-03-28T18:24:28.002Z,101811.63
2023-03-28T18:27:15.250Z,101733.72
2023-03-28T18:30:02.130Z,101804.66
2023-03-28T18:32:49.093Z,101801.16
2023-03-28T18:35:36.180Z,101805.47
2023-03-28T18:38:23.120Z,101809.84
2023-03-28T18:41:13.019Z,101800.22
2023-03-28T18:44:01.287Z,101801.97
2023-03-28T18:46:48.244Z,101795.88
2023-03-28T18:49:35.126Z,101800.19
2023-03-28T18:52:27.097Z,101781.88
2023-03-28T18:55:15.156Z,101748.53
2023-03-28T18:58:02.247Z,101787.09
2023-03-28T19:00:49.104Z,101759.06
2023-03-28T19:03:36.264Z,101779.16
2023-03-28T19:06:23.468Z,101787.94
2023-03-28T19:09:10.903Z,101790.53
2023-03-28T19:11:57.718Z,101787.91
2023-03-28T19:14:44.700Z,101767.78
2023-03-28T19:17:31.557Z,101795.75
2023-03-28T19:20:18.437Z,101778.31
2023-03-28T19:23:05.278Z,101785.25
2023-03-28T19:25:52.478Z,101773.88
2023-03-28T19:28:40.442Z,101755.59
2023-03-28T19:31:29.899Z,101785.28
2023-03-28T19:34:16.790Z,101778.31
2023-03-28T19:37:04.140Z,101773.00
2023-03-28T19:39:51.098Z,101766.03
2023-03-28T19:42:38.207Z,101773.09
2023-03-28T19:45:25.601Z,101752.91
2023-03-28T19:48:12.908Z,101745.06
2023-03-28T19:50:59.869Z,101774.78
2023-03-28T19:53:46.732Z,101685.53
2023-03-28T19:56:33.852Z,101712.66
2023-03-28T19:59:20.896Z,101763.41
2023-03-28T20:02:07.862Z,101768.66
2023-03-28T20:04:54.953Z,101758.19
2023-03-28T20:07:41.990Z,101749.47
2023-03-28T20:10:29.515Z,101758.22
2023-03-28T20:13:16.428Z,101734.59
2023-03-28T20:16:05.874Z,101757.38
2023-03-28T20:18:53.677Z,101723.22
2023-03-28T20:21:40.704Z,101741.69
2023-03-28T20:24:27.851Z,101733.78
2023-03-28T20:27:14.698Z,101736.41
2023-03-28T20:30:01.827Z,101746.03
2023-03-28T20:32:49.013Z,101681.28
2023-03-28T20:35:35.969Z,101706.72
2023-03-28T20:38:23.305Z,101732.97
2023-03-28T20:41:10.349Z,101734.66
2023-03-28T20:43:57.398Z,101730.34
2023-03-28T20:46:44.306Z,101735.56
2023-03-28T20:49:31.644Z,101703.19
2023-03-28T20:52:18.431Z,101724.19
2023-03-28T20:55:05.611Z,101733.78
2023-03-28T20:57:52.557Z,101676.03
2023-03-28T21:00:39.782Z,101727.72
2023-03-28T21:03:26.745Z,101725.09
2023-03-28T21:06:13.572Z,101726.84
2023-03-28T21:09:00.476Z,101725.94
2023-03-28T21:11:53.130Z,101722.44
2023-03-28T21:14:40.133Z,101713.75
2023-03-28T21:17:27.337Z,101677.88
2023-03-28T21:20:14.946Z,101717.25
2023-03-28T21:23:01.915Z,101695.31
2023-03-28T21:25:48.842Z,101707.63
2023-03-28T21:28:35.906Z,101712.88
2023-03-28T21:31:24.932Z,101711.13
2023-03-28T21:34:13.439Z,101711.13
2023-03-28T21:37:00.342Z,101712.84
2023-03-28T21:39:47.484Z,101705.91
2023-03-28T21:42:34.343Z,101687.50
2023-03-28T21:45:21.385Z,101703.28
2023-03-28T21:48:08.414Z,101705.88
2023-03-28T21:50:55.494Z,101709.38
2023-03-28T21:53:42.329Z,101689.28
2023-03-28T21:56:29.933Z,101695.41
2023-03-28T21:59:17.171Z,101671.78
2023-03-28T22:02:04.259Z,101699.72
2023-03-28T22:04:51.530Z,101680.53
2023-03-28T22:07:39.362Z,101629.78
2023-03-28T22:10:26.802Z,101697.97
2023-03-28T22:13:14.591Z,101705.78
2023-03-28T22:16:01.941Z,101675.19
2023-03-28T22:18:48.795Z,101691.81
2023-03-28T22:21:35.870Z,101689.19
2023-03-28T22:24:22.993Z,101685.72
2023-03-28T22:27:10.122Z,101687.44
2023-03-28T22:29:57.268Z,101689.16
2023-03-28T22:32:44.220Z,101650.69
2023-03-28T22:35:31.435Z,101680.47
2023-03-28T22:38:18.474Z,101678.66
2023-03-28T22:41:05.372Z,101662.91
2023-03-28T22:43:54.195Z,101678.66
2023-03-28T22:46:41.343Z,101682.16
2023-03-28T22:49:29.373Z,101647.19
2023-03-28T22:52:17.715Z,101676.03
2023-03-28T22:55:04.642Z,101658.56
2023-03-28T22:57:51.937Z,101672.50
2023-03-28T23:00:39.772Z,101676.91
2023-03-28T23:03:26.925Z,101660.28
2023-03-28T23:06:13.974Z,101663.81
2023-03-28T23:09:01.015Z,101665.56
2023-03-28T23:11:48.082Z,101660.34
2023-03-28T23:14:35.063Z,101670.78
2023-03-28T23:17:24.769Z,101661.22
2023-03-28T23:20:12.722Z,101641.06
2023-03-28T23:23:05.669Z,101661.16
2023-03-28T23:25:52.579Z,101667.25
2023-03-28T23:28:39.518Z,101646.31
2023-03-28T23:31:27.042Z,101604.28
2023-03-28T23:34:13.930Z,101655.06
2023-03-28T23:37:03.679Z,101659.41
2023-03-28T23:39:50.722Z,101648.94
2023-03-28T23:42:37.849Z,101656.78
2023-03-28T23:45:25.611Z,101655.91
2023-03-28T23:48:12.439Z,101653.31
2023-03-28T23:50:59.733Z,101624.41
2023-03-28T23:53:46.806Z,101642.81
2023-03-28T23:56:33.884Z,101599.09
2023-03-28T23:59:20.875Z,101601.72
